»·PEaware :: SWA3006 KPDX-KOAK

SWA3006 :: KPDX-KOAK

FLIGHT INFORMATION

Flight Status: Arrived
Operator:
Southwest Airlines
More flights by this operator :: More flights under this callsign
Pilot: Kyle M. (9350)
Aircraft: BOEING 737-300
(B733)
More flights by this aircraft type
Origin: KPDX Portland Intl
United States
Destination: KOAK Metro Oakland Intl
United States
More flights between these airports :: More routes between these airports
Route: MINNE5 HISKU Q5 HUPTU SPAMY WNDSR2
File this flight plan on PilotEdge
Remarks: RMK / SIMBRIEF
Altitude:
(Current/Filed)
33,000ft
Speed:
(Current/Filed)
445kts
Departed: 29-Jul-20 11:25 AM
Arrived: 29-Jul-20 12:50 PM
Distance/Time
Traveled:
474nm/1:24
Distance/Time
To Go:
Arrived

Flight Plot

Page will automatically refresh every two minutes.


Map Options




Map Legend


Flown Route
Filed Route
Departure Airport
Arrival Airport
Navaid (VOR, NDB)
Fix

Horizontal Profiles

Position Reports

Time Latitude Longitude Heading Altitude Ground
Speed
29-Jul-20 10:53 45.588802 -122.597435 28 29ft 0kts
29-Jul-20 10:54 45.588802 -122.597435 28 29ft 0kts
29-Jul-20 10:55 45.588802 -122.597435 28 29ft 0kts
29-Jul-20 10:56 45.588802 -122.597435 28 29ft 0kts
29-Jul-20 10:57 45.588802 -122.597435 28 29ft 0kts
29-Jul-20 10:58 45.588802 -122.597435 28 29ft 0kts
29-Jul-20 10:59 45.588802 -122.597435 28 29ft 0kts
29-Jul-20 11:00 45.588802 -122.597435 28 29ft 0kts
29-Jul-20 11:01 45.588802 -122.597435 28 29ft 0kts
29-Jul-20 11:02 45.588802 -122.597435 28 29ft 0kts
29-Jul-20 11:03 45.588802 -122.597435 28 29ft 0kts
29-Jul-20 11:04 45.588802 -122.597435 28 29ft 0kts
29-Jul-20 11:05 45.588802 -122.597435 28 29ft 0kts
29-Jul-20 11:06 45.588802 -122.597435 28 29ft 0kts
29-Jul-20 11:07 45.588802 -122.597435 28 29ft 0kts
29-Jul-20 11:08 45.588802 -122.597435 28 29ft 0kts
29-Jul-20 11:09 45.588802 -122.597435 28 29ft 0kts
29-Jul-20 11:10 45.588802 -122.597435 28 29ft 0kts
29-Jul-20 11:11 45.588802 -122.597435 28 29ft 0kts
29-Jul-20 11:12 45.588802 -122.597435 28 29ft 0kts
29-Jul-20 11:13 45.588802 -122.597435 28 29ft 0kts
29-Jul-20 11:14 45.588802 -122.597435 28 29ft 0kts
29-Jul-20 11:15 45.588802 -122.597435 29 29ft 0kts
29-Jul-20 11:17 45.588486 -122.597688 28 29ft 2kts
29-Jul-20 11:18 45.588017 -122.597795 303 29ft 0kts
29-Jul-20 11:19 45.587981 -122.597692 296 29ft 0kts
29-Jul-20 11:20 45.587981 -122.597692 297 29ft 0kts
29-Jul-20 11:21 45.588284 -122.598474 299 29ft 8kts
29-Jul-20 11:22 45.589991 -122.602849 302 29ft 11kts
29-Jul-20 11:23 45.592572 -122.600153 44 29ft 14kts
29-Jul-20 11:24 45.594780 -122.596785 72 29ft 10kts
29-Jul-20 11:25 45.586760 -122.574980 118 81ft 171kts
29-Jul-20 11:26 45.570507 -122.503381 97 2563ft 216kts
29-Jul-20 11:27 45.556390 -122.409370 103 5081ft 268kts
29-Jul-20 11:28 45.521311 -122.317702 160 8274ft 280kts
29-Jul-20 11:29 45.443171 -122.320022 207 10615ft 316kts
29-Jul-20 11:30 45.395433 -122.428006 243 13403ft 337kts
29-Jul-20 11:31 45.356055 -122.552736 243 16028ft 350kts
29-Jul-20 11:32 45.314985 -122.681387 243 18381ft 363kts
29-Jul-20 11:32 45.279401 -122.792376 243 20222ft 374kts
29-Jul-20 11:34 45.219178 -122.943812 215 22502ft 385kts
29-Jul-20 11:34 45.131779 -122.966408 179 23924ft 399kts
29-Jul-20 11:35 45.018981 -122.961726 179 25556ft 412kts
29-Jul-20 11:37 44.882500 -122.956999 179 27293ft 427kts
29-Jul-20 11:37 44.782820 -122.953572 179 28739ft 429kts
29-Jul-20 11:38 44.663416 -122.949491 179 30520ft 427kts
29-Jul-20 11:40 44.525685 -122.944803 179 32413ft 422kts
29-Jul-20 11:40 44.427107 -122.941824 179 33019ft 425kts
29-Jul-20 11:41 44.307925 -122.938120 179 32963ft 438kts
29-Jul-20 11:42 44.182711 -122.934215 179 33007ft 453kts
29-Jul-20 11:43 44.056705 -122.930338 179 33009ft 451kts
29-Jul-20 11:44 43.931147 -122.926496 180 33011ft 446kts
29-Jul-20 11:45 43.805746 -122.922673 180 33012ft 446kts
29-Jul-20 11:46 43.681381 -122.918897 181 33012ft 446kts
29-Jul-20 11:47 43.556965 -122.915139 181 33014ft 445kts
29-Jul-20 11:48 43.432849 -122.911403 181 33016ft 444kts
29-Jul-20 11:49 43.308974 -122.907690 181 33016ft 443kts
29-Jul-20 11:50 43.185817 -122.904017 182 33016ft 442kts
29-Jul-20 11:51 43.062621 -122.900356 182 33021ft 441kts
29-Jul-20 11:52 42.939579 -122.896715 182 33021ft 439kts
29-Jul-20 11:53 42.816912 -122.893085 183 33024ft 439kts
29-Jul-20 11:54 42.694571 -122.889489 183 33021ft 438kts
29-Jul-20 11:55 42.572780 -122.885929 183 32979ft 437kts
29-Jul-20 11:56 42.450884 -122.882611 184 32966ft 435kts
29-Jul-20 11:57 42.329395 -122.879352 184 32967ft 435kts
29-Jul-20 11:58 42.208362 -122.875863 184 32965ft 434kts
29-Jul-20 11:59 42.087389 -122.872389 184 32965ft 434kts
29-Jul-20 12:00 41.966385 -122.868911 185 33024ft 429kts
29-Jul-20 12:01 41.846575 -122.865497 185 33045ft 429kts
29-Jul-20 12:02 41.727061 -122.862091 185 33048ft 428kts
29-Jul-20 12:03 41.607147 -122.858702 185 33048ft 428kts
29-Jul-20 12:04 41.487508 -122.855331 185 33039ft 429kts
29-Jul-20 12:05 41.367818 -122.851968 185 33047ft 428kts
29-Jul-20 12:06 41.248226 -122.846081 184 33066ft 430kts
29-Jul-20 12:07 41.128240 -122.838877 184 33066ft 429kts
29-Jul-20 12:08 41.008395 -122.831712 184 33067ft 429kts
29-Jul-20 12:09 40.890347 -122.824682 184 33044ft 430kts
29-Jul-20 12:10 40.770851 -122.817563 184 33063ft 428kts
29-Jul-20 12:11 40.651338 -122.810497 184 32980ft 428kts
29-Jul-20 12:12 40.532305 -122.803484 184 32955ft 428kts
29-Jul-20 12:13 40.413007 -122.796481 184 32957ft 428kts
29-Jul-20 12:14 40.293623 -122.789567 184 32956ft 428kts
29-Jul-20 12:15 40.174277 -122.782690 184 32956ft 428kts
29-Jul-20 12:16 40.055048 -122.775782 184 32957ft 428kts
29-Jul-20 12:17 39.935542 -122.768884 184 32956ft 427kts
29-Jul-20 12:18 39.815825 -122.761983 184 32960ft 427kts
29-Jul-20 12:19 39.696914 -122.755164 184 32956ft 427kts
29-Jul-20 12:20 39.577811 -122.748575 184 32965ft 426kts
29-Jul-20 12:21 39.459704 -122.725247 164 32983ft 447kts
29-Jul-20 12:22 39.344648 -122.664468 164 29728ft 446kts
29-Jul-20 12:23 39.230281 -122.605942 163 26738ft 435kts
29-Jul-20 12:24 39.117178 -122.578971 178 24498ft 400kts
29-Jul-20 12:25 39.009375 -122.560829 172 22356ft 383kts
29-Jul-20 12:26 38.904994 -122.534409 172 22002ft 383kts
29-Jul-20 12:27 38.798942 -122.507897 172 22030ft 383kts
29-Jul-20 12:28 38.693313 -122.481549 172 22030ft 383kts
29-Jul-20 12:29 38.590728 -122.464858 176 21241ft 377kts
29-Jul-20 12:30 38.487967 -122.449172 176 19038ft 364kts
29-Jul-20 12:31 38.389104 -122.434174 176 17003ft 350kts
29-Jul-20 12:32 38.293762 -122.419711 175 15095ft 338kts
29-Jul-20 12:33 38.198039 -122.405157 174 12702ft 346kts
29-Jul-20 12:34 38.107272 -122.391227 174 10685ft 313kts
29-Jul-20 12:35 38.024449 -122.377958 165 8931ft 285kts
29-Jul-20 12:36 37.961421 -122.321708 145 7542ft 265kts
29-Jul-20 12:37 37.903095 -122.265867 145 6536ft 260kts
29-Jul-20 12:38 37.845412 -122.211083 145 5504ft 257kts
29-Jul-20 12:39 37.788621 -122.157049 143 4987ft 250kts
29-Jul-20 12:40 37.747481 -122.093098 130 5015ft 225kts
29-Jul-20 12:41 37.708709 -122.030221 130 4982ft 226kts
29-Jul-20 12:42 37.670097 -121.966636 146 4952ft 225kts
29-Jul-20 12:43 37.615124 -121.984531 212 4281ft 217kts
29-Jul-20 12:44 37.582638 -122.039156 288 3421ft 206kts
29-Jul-20 12:45 37.618866 -122.092264 311 2583ft 190kts
29-Jul-20 12:46 37.650549 -122.137898 307 1598ft 153kts
29-Jul-20 12:47 37.676058 -122.176240 308 825ft 138kts
29-Jul-20 12:48 37.700479 -122.212746 310 93ft 135kts
29-Jul-20 12:49 37.714274 -122.231464 347 11ft 16kts
29-Jul-20 12:50 37.712660 -122.227284 130 11ft 20kts
29-Jul-20 12:51 37.712363 -122.222987 40 11ft 16kts
29-Jul-20 12:52 37.710765 -122.218677 135 11ft 19kts
29-Jul-20 12:53 37.709449 -122.214428 36 11ft 8kts
29-Jul-20 12:54 37.709223 -122.213374 143 11ft 0kts
29-Jul-20 12:55 37.699288 -122.210968 310 130ft 135kts

Navigation Log

Ident Type
Flight plan parsing failed, navigation log unavailable